createdAt,value
2022-11-14T00:03:25.409Z,5.81
2022-11-14T00:08:48.465Z,5.79
2022-11-14T00:14:11.173Z,5.79
2022-11-14T00:19:33.334Z,5.78
2022-11-14T00:24:56.357Z,5.70
2022-11-14T00:30:17.981Z,5.66
2022-11-14T00:35:39.947Z,5.61
2022-11-14T00:41:03.317Z,5.56
2022-11-14T00:46:25.444Z,5.53
2022-11-14T00:51:47.644Z,5.52
2022-11-14T00:57:10.663Z,5.45
2022-11-14T01:02:32.489Z,5.37
2022-11-14T01:07:54.185Z,5.31
2022-11-14T01:13:19.363Z,5.31
2022-11-14T01:18:41.782Z,5.26
2022-11-14T01:24:04.911Z,5.24
2022-11-14T01:29:28.137Z,5.19
2022-11-14T01:34:50.117Z,5.16
2022-11-14T01:40:13.368Z,5.05
2022-11-14T01:45:54.568Z,4.99
2022-11-14T01:51:27.217Z,4.96
2022-11-14T01:56:54.139Z,4.94
2022-11-14T02:02:20.086Z,4.88
2022-11-14T02:07:42.798Z,4.84
2022-11-14T02:13:04.264Z,4.77
2022-11-14T02:18:28.001Z,4.72
2022-11-14T02:23:51.413Z,4.68
2022-11-14T02:29:13.238Z,4.68
2022-11-14T02:34:35.172Z,4.58
2022-11-14T02:39:58.330Z,4.55
2022-11-14T02:45:20.907Z,4.54
2022-11-14T02:50:42.961Z,4.50
2022-11-14T02:56:06.712Z,4.45
2022-11-14T03:01:28.798Z,4.41
2022-11-14T03:06:51.033Z,4.36
2022-11-14T03:12:18.020Z,4.27
2022-11-14T03:17:39.951Z,4.21
2022-11-14T03:23:01.567Z,4.18
2022-11-14T03:28:24.960Z,4.12
2022-11-14T03:33:46.810Z,4.09
2022-11-14T03:39:08.738Z,4.04
2022-11-14T03:44:31.873Z,4.01
2022-11-14T03:49:53.710Z,3.97
2022-11-14T03:55:15.261Z,3.89
2022-11-14T04:00:39.046Z,3.83
2022-11-14T04:06:00.808Z,3.78
2022-11-14T04:11:22.695Z,3.73
2022-11-14T04:16:45.375Z,3.69
2022-11-14T04:22:07.139Z,3.70
2022-11-14T04:27:28.832Z,3.63
2022-11-14T04:32:51.889Z,3.57
2022-11-14T04:38:13.631Z,3.52
2022-11-14T04:43:35.096Z,3.50
2022-11-14T04:48:57.859Z,3.50
2022-11-14T04:54:19.241Z,3.50
2022-11-14T04:59:40.774Z,3.46
2022-11-14T05:05:03.777Z,3.44
2022-11-14T05:10:25.462Z,3.43
2022-11-14T05:15:46.996Z,3.40
2022-11-14T05:21:13.714Z,3.39
2022-11-14T05:26:35.542Z,3.36
2022-11-14T05:31:57.947Z,3.31
2022-11-14T05:37:20.944Z,3.27
2022-11-14T05:42:42.932Z,3.24
2022-11-14T05:48:04.637Z,3.16
2022-11-14T05:53:28.871Z,3.16
2022-11-14T05:58:50.361Z,3.17
2022-11-14T06:04:14.399Z,3.15
2022-11-14T06:09:37.469Z,3.18
2022-11-14T06:14:58.972Z,3.23
2022-11-14T06:20:21.018Z,3.27
2022-11-14T06:25:45.808Z,3.26
2022-11-14T06:31:07.462Z,3.22
2022-11-14T06:36:31.080Z,3.22
2022-11-14T06:41:54.324Z,3.23
2022-11-14T06:47:16.059Z,3.20
2022-11-14T06:52:37.743Z,3.18
2022-11-14T06:58:01.164Z,3.15
2022-11-14T07:03:23.964Z,3.12
2022-11-14T07:08:45.341Z,3.09
2022-11-14T07:14:08.710Z,3.07
2022-11-14T07:19:30.462Z,3.04
2022-11-14T07:24:52.547Z,3.07
2022-11-14T07:30:16.704Z,3.12
2022-11-14T07:35:41.076Z,3.15
2022-11-14T07:41:04.986Z,3.17
2022-11-14T07:46:27.810Z,3.22
2022-11-14T07:51:50.093Z,3.26
2022-11-14T07:57:11.400Z,3.29
2022-11-14T08:02:34.674Z,3.31
2022-11-14T08:07:56.658Z,3.37
2022-11-14T08:13:31.503Z,3.45
2022-11-14T08:18:55.536Z,3.50
2022-11-14T08:24:17.493Z,3.59
2022-11-14T08:29:39.324Z,3.70
2022-11-14T08:35:02.790Z,3.88
2022-11-14T08:40:24.459Z,4.17
2022-11-14T08:45:45.907Z,4.41
2022-11-14T08:51:10.297Z,4.68
2022-11-14T08:56:32.076Z,4.95
2022-11-14T09:01:54.179Z,5.19
2022-11-14T09:07:17.572Z,5.37
2022-11-14T09:12:39.467Z,5.76
2022-11-14T09:18:01.276Z,6.08
2022-11-14T09:23:25.575Z,6.46
2022-11-14T09:28:47.744Z,6.83
2022-11-14T09:34:09.410Z,7.09
2022-11-14T09:39:32.491Z,7.44
2022-11-14T09:44:57.849Z,7.76
2022-11-14T09:50:26.171Z,8.17
2022-11-14T09:55:49.919Z,8.54
2022-11-14T10:01:19.136Z,8.85
2022-11-14T10:06:49.894Z,8.98
2022-11-14T10:12:19.591Z,9.30
2022-11-14T10:17:54.514Z,9.61
2022-11-14T10:23:35.588Z,9.82
2022-11-14T10:29:20.873Z,9.97
2022-11-14T10:34:50.951Z,10.22
2022-11-14T10:40:19.050Z,10.37
2022-11-14T10:45:44.816Z,10.49
2022-11-14T10:51:14.131Z,10.60
2022-11-14T10:56:35.885Z,10.64
2022-11-14T11:02:00.245Z,10.73
2022-11-14T11:07:42.725Z,10.79
2022-11-14T11:13:04.699Z,10.88
2022-11-14T11:18:31.293Z,10.93
2022-11-14T11:23:57.447Z,10.97
2022-11-14T11:29:21.208Z,10.95
2022-11-14T11:34:44.626Z,10.97
2022-11-14T11:40:15.245Z,11.04
2022-11-14T11:45:38.236Z,11.21
2022-11-14T11:51:04.034Z,11.32
2022-11-14T11:56:28.850Z,11.42
2022-11-14T12:01:54.134Z,11.51
2022-11-14T12:07:20.530Z,11.60
2022-11-14T12:13:08.062Z,11.81
2022-11-14T12:18:48.251Z,11.91
2022-11-14T12:24:47.401Z,11.93
2022-11-14T12:30:15.164Z,12.00
2022-11-14T12:35:39.476Z,12.03
2022-11-14T12:41:07.616Z,12.06
2022-11-14T12:46:29.048Z,12.15
2022-11-14T12:51:52.941Z,12.24
2022-11-14T12:57:40.555Z,12.23
2022-11-14T13:03:21.903Z,12.26
2022-11-14T13:09:04.197Z,12.31
2022-11-14T13:14:45.420Z,12.28
2022-11-14T13:20:53.307Z,12.17
2022-11-14T13:26:43.975Z,12.13
2022-11-14T13:32:11.677Z,12.15
2022-11-14T13:38:03.880Z,12.18
2022-11-14T13:43:37.658Z,12.21
2022-11-14T13:49:13.191Z,12.28
2022-11-14T13:54:35.542Z,12.27
2022-11-14T14:00:03.663Z,12.26
2022-11-14T14:05:33.971Z,12.19
2022-11-14T14:11:07.321Z,12.09
2022-11-14T14:16:37.739Z,12.03
2022-11-14T14:22:08.739Z,11.98
2022-11-14T14:27:38.786Z,11.94
2022-11-14T14:33:05.177Z,11.81
2022-11-14T14:38:30.407Z,11.77
2022-11-14T14:43:56.361Z,11.67
2022-11-14T14:49:23.368Z,11.60
2022-11-14T14:54:56.034Z,11.54
2022-11-14T15:00:21.884Z,11.54
2022-11-14T15:05:44.092Z,11.47
2022-11-14T15:11:08.366Z,11.26
2022-11-14T15:16:31.295Z,11.10
2022-11-14T15:22:04.318Z,10.95
2022-11-14T15:27:27.341Z,10.65
2022-11-14T15:32:50.821Z,10.36
2022-11-14T15:38:43.148Z,10.19
2022-11-14T15:44:05.931Z,9.99
2022-11-14T15:49:28.747Z,9.82
2022-11-14T15:54:50.191Z,9.64
2022-11-14T16:00:17.725Z,9.44
2022-11-14T16:05:39.760Z,9.28
2022-11-14T16:11:01.539Z,9.10
2022-11-14T16:16:24.211Z,8.99
2022-11-14T16:21:45.957Z,8.84
2022-11-14T16:27:08.207Z,8.67
2022-11-14T16:32:31.100Z,8.55
2022-11-14T16:37:55.600Z,8.38
2022-11-14T16:43:17.292Z,8.27
2022-11-14T16:48:40.300Z,8.18
2022-11-14T16:54:02.125Z,8.10
2022-11-14T16:59:23.791Z,8.08
2022-11-14T17:04:47.538Z,8.02
2022-11-14T17:10:10.159Z,7.91
2022-11-14T17:15:33.406Z,7.80
2022-11-14T17:20:56.646Z,7.73
2022-11-14T17:26:18.577Z,7.66
2022-11-14T17:31:45.781Z,7.56
2022-11-14T17:37:10.309Z,7.53
2022-11-14T17:42:32.036Z,7.47
2022-11-14T17:47:53.933Z,7.39
2022-11-14T17:53:16.825Z,7.34
2022-11-14T17:58:38.590Z,7.28
2022-11-14T18:04:04.676Z,7.17
2022-11-14T18:09:29.555Z,7.12
2022-11-14T18:14:51.304Z,7.01
2022-11-14T18:20:13.189Z,6.99
2022-11-14T18:25:36.506Z,6.90
2022-11-14T18:30:58.029Z,6.81
2022-11-14T18:36:20.997Z,6.73
2022-11-14T18:41:44.270Z,6.66
2022-11-14T18:47:06.345Z,6.55
2022-11-14T18:52:28.197Z,6.58
2022-11-14T18:57:51.558Z,6.59
2022-11-14T19:03:14.453Z,6.60
2022-11-14T19:08:36.419Z,6.67
2022-11-14T19:14:03.434Z,6.74
2022-11-14T19:19:25.614Z,6.78
2022-11-14T19:24:47.614Z,6.83
2022-11-14T19:30:11.868Z,6.84
2022-11-14T19:35:33.348Z,6.86
2022-11-14T19:40:55.281Z,6.89
2022-11-14T19:46:19.379Z,6.92
2022-11-14T19:51:40.818Z,6.98
2022-11-14T19:57:03.243Z,7.03
2022-11-14T20:02:28.784Z,7.06
2022-11-14T20:07:50.542Z,7.07
2022-11-14T20:13:11.906Z,7.10
2022-11-14T20:18:35.082Z,7.16
2022-11-14T20:23:56.842Z,7.18
2022-11-14T20:29:18.891Z,7.24
2022-11-14T20:34:41.921Z,7.28
2022-11-14T20:40:03.296Z,7.24
2022-11-14T20:45:26.635Z,7.28
2022-11-14T20:50:50.052Z,7.31
2022-11-14T20:56:13.678Z,7.32
2022-11-14T21:01:40.384Z,7.33
2022-11-14T21:07:06.321Z,7.35
2022-11-14T21:12:27.920Z,7.36
2022-11-14T21:17:49.678Z,7.38
2022-11-14T21:23:12.648Z,7.43
2022-11-14T21:28:37.871Z,7.42
2022-11-14T21:34:01.139Z,7.43
2022-11-14T21:39:24.738Z,7.49
2022-11-14T21:44:46.854Z,7.55
2022-11-14T21:50:09.231Z,7.54
2022-11-14T21:55:34.410Z,7.53
2022-11-14T22:00:56.199Z,7.52
2022-11-14T22:06:18.126Z,7.54
2022-11-14T22:11:41.495Z,7.58
2022-11-14T22:17:03.373Z,7.64
2022-11-14T22:22:25.041Z,7.65
2022-11-14T22:27:48.408Z,7.62
2022-11-14T22:33:10.542Z,7.63
2022-11-14T22:38:32.526Z,7.60
2022-11-14T22:43:56.990Z,7.62
2022-11-14T22:49:21.179Z,7.63
2022-11-14T22:54:43.334Z,7.63
2022-11-14T23:00:08.958Z,7.60
2022-11-14T23:05:30.949Z,7.60
2022-11-14T23:10:52.888Z,7.62
2022-11-14T23:16:18.872Z,7.61
2022-11-14T23:21:40.754Z,7.62
2022-11-14T23:27:02.514Z,7.62
2022-11-14T23:32:25.248Z,7.61
2022-11-14T23:37:46.845Z,7.58
2022-11-14T23:43:08.804Z,7.54
2022-11-14T23:48:31.985Z,7.45
2022-11-14T23:53:53.946Z,7.38
2022-11-14T23:59:15.709Z,7.34
